createdAt,value
2018-04-13T00:09:52.755Z,80.4
2018-04-13T00:26:33.257Z,80.4
2018-04-13T00:43:14.274Z,80.8
2018-04-13T00:59:55.027Z,80.8
2018-04-13T01:16:35.927Z,81.2
2018-04-13T01:33:16.560Z,81.6
2018-04-13T01:49:56.631Z,81.6
2018-04-13T02:06:39.324Z,81.2
2018-04-13T02:23:17.745Z,81.2
2018-04-13T02:39:57.876Z,81.6
2018-04-13T02:56:38.118Z,81.6
2018-04-13T03:13:17.167Z,82.0
2018-04-13T03:29:56.991Z,82.0
2018-04-13T03:46:36.253Z,82.4
2018-04-13T04:03:16.394Z,82.4
2018-04-13T04:19:55.309Z,82.8
2018-04-13T04:36:34.798Z,82.8
2018-04-13T04:53:14.159Z,82.4
2018-04-13T05:09:55.674Z,82.4
2018-04-13T05:26:34.614Z,82.4
2018-04-13T05:43:14.084Z,82.4
2018-04-13T05:59:54.601Z,82.0
2018-04-13T06:16:34.934Z,82.0
2018-04-13T06:33:16.231Z,81.2
2018-04-13T06:49:57.735Z,80.4
2018-04-13T07:06:39.238Z,80.0
2018-04-13T07:16:40.856Z,79.6
2018-04-13T07:33:24.395Z,78.0
2018-04-13T07:50:05.259Z,77.2
2018-04-13T08:06:48.653Z,76.8
2018-04-13T08:23:31.459Z,76.0
2018-04-13T08:40:14.752Z,75.2
2018-04-13T08:56:58.090Z,74.4
2018-04-13T09:13:42.291Z,73.2
2018-04-13T09:27:05.355Z,72.4
2018-04-13T09:37:07.998Z,70.4
2018-04-13T09:53:53.722Z,68.4
2018-04-13T10:07:17.635Z,67.2
2018-04-13T10:20:43.104Z,65.2
2018-04-13T10:37:26.940Z,64.8
2018-04-13T10:54:11.333Z,64.0
2018-04-13T11:07:35.992Z,62.8
2018-04-13T11:24:21.950Z,62.4
2018-04-13T11:34:25.609Z,60.4
2018-04-13T11:51:11.200Z,60.0
2018-04-13T12:01:14.317Z,58.8
2018-04-13T12:14:37.991Z,60.0
2018-04-13T12:31:23.402Z,60.0
2018-04-13T12:48:06.923Z,60.4
2018-04-13T13:04:50.376Z,61.2
2018-04-13T13:21:34.919Z,62.0
2018-04-13T13:38:19.770Z,62.0
2018-04-13T13:55:03.109Z,62.0
2018-04-13T14:11:48.720Z,62.0
2018-04-13T14:28:31.940Z,62.0
2018-04-13T14:45:15.878Z,62.0
2018-04-13T15:01:59.833Z,62.0
2018-04-13T15:18:43.657Z,62.4
2018-04-13T15:35:27.554Z,63.2
2018-04-13T15:52:11.523Z,64.0
2018-04-13T16:08:55.288Z,64.4
2018-04-13T16:25:38.392Z,64.8
2018-04-13T16:42:20.721Z,65.2
2018-04-13T16:59:03.420Z,66.0
2018-04-13T17:15:46.469Z,66.0
2018-04-13T17:32:28.589Z,66.8
2018-04-13T17:49:11.773Z,67.2
2018-04-13T18:05:53.717Z,67.6
2018-04-13T18:22:35.911Z,68.0
2018-04-13T18:39:18.000Z,68.4
2018-04-13T18:56:00.303Z,68.8
2018-04-13T19:12:42.586Z,68.8
2018-04-13T19:29:25.383Z,68.4
2018-04-13T19:46:06.865Z,68.4
2018-04-13T20:02:49.241Z,68.8
2018-04-13T20:19:30.853Z,69.2
2018-04-13T20:36:13.329Z,70.0
2018-04-13T20:52:54.439Z,71.2
2018-04-13T21:09:36.112Z,72.0
2018-04-13T21:26:17.350Z,72.4
2018-04-13T21:42:58.865Z,72.4
2018-04-13T21:59:40.012Z,72.8
2018-04-13T22:16:21.651Z,73.2
2018-04-13T22:33:02.800Z,73.6
2018-04-13T22:49:43.324Z,73.2
2018-04-13T23:06:23.930Z,73.6
2018-04-13T23:23:05.093Z,73.6
2018-04-13T23:39:45.013Z,74.0
2018-04-13T23:56:25.080Z,73.6
